createdAt,value
2023-04-27T00:00:54.967Z,16.48
2023-04-27T00:03:57.333Z,16.50
2023-04-27T00:06:58.929Z,16.48
2023-04-27T00:10:00.546Z,16.57
2023-04-27T00:13:02.372Z,16.62
2023-04-27T00:16:04.106Z,16.62
2023-04-27T00:19:05.716Z,16.59
2023-04-27T00:22:08.251Z,16.65
2023-04-27T00:25:09.906Z,16.67
2023-04-27T00:28:11.486Z,16.64
2023-04-27T00:31:13.031Z,16.60
2023-04-27T00:34:14.604Z,16.66
2023-04-27T00:37:16.403Z,16.70
2023-04-27T00:40:17.987Z,16.70
2023-04-27T00:43:19.558Z,16.66
2023-04-27T00:46:21.506Z,16.64
2023-04-27T00:49:23.684Z,16.64
2023-04-27T00:52:26.003Z,16.51
2023-04-27T00:55:27.587Z,16.38
2023-04-27T00:58:30.256Z,16.38
2023-04-27T01:01:33.999Z,16.40
2023-04-27T01:04:36.941Z,16.42
2023-04-27T01:07:39.864Z,16.50
2023-04-27T01:10:41.655Z,16.50
2023-04-27T01:13:45.078Z,16.53
2023-04-27T01:16:46.630Z,16.51
2023-04-27T01:19:48.221Z,16.52
2023-04-27T01:22:51.573Z,16.52
2023-04-27T01:25:53.047Z,16.48
2023-04-27T01:28:55.562Z,16.49
2023-04-27T01:31:57.060Z,16.47
2023-04-27T01:34:58.553Z,16.48
2023-04-27T01:38:01.355Z,16.45
2023-04-27T01:41:07.173Z,16.37
2023-04-27T01:44:09.193Z,16.42
2023-04-27T01:47:10.798Z,16.39
2023-04-27T01:50:12.323Z,16.43
2023-04-27T01:53:14.246Z,16.47
2023-04-27T01:56:15.953Z,16.53
2023-04-27T01:59:17.453Z,16.51
2023-04-27T02:02:19.008Z,16.42
2023-04-27T02:05:20.667Z,16.40
2023-04-27T02:08:22.658Z,16.42
2023-04-27T02:11:24.185Z,16.37
2023-04-27T02:14:25.664Z,16.31
2023-04-27T02:17:27.248Z,16.07
2023-04-27T02:20:30.527Z,16.87
2023-04-27T02:23:31.952Z,16.93
2023-04-27T02:26:33.384Z,16.64
2023-04-27T02:29:38.755Z,13.08
2023-04-27T02:32:41.447Z,12.67
2023-04-27T02:35:43.013Z,12.58
2023-04-27T02:38:44.554Z,12.52
2023-04-27T02:41:46.022Z,12.53
2023-04-27T02:44:47.998Z,12.47
2023-04-27T02:47:50.907Z,12.43
2023-04-27T02:50:52.594Z,12.42
2023-04-27T02:53:54.350Z,12.43
2023-04-27T02:56:55.830Z,12.44
2023-04-27T02:59:57.301Z,12.46
2023-04-27T03:02:58.968Z,12.46
2023-04-27T03:06:00.631Z,12.48
2023-04-27T03:09:05.396Z,12.35
2023-04-27T03:12:07.020Z,12.26
2023-04-27T03:15:09.182Z,12.31
2023-04-27T03:18:11.365Z,12.38
2023-04-27T03:21:13.427Z,12.41
2023-04-27T03:24:15.618Z,12.43
2023-04-27T03:27:17.653Z,12.42
2023-04-27T03:30:19.315Z,12.40
2023-04-27T03:33:21.189Z,12.39
2023-04-27T03:36:22.703Z,12.46
2023-04-27T03:39:24.272Z,12.44
2023-04-27T03:42:25.795Z,12.44
2023-04-27T03:45:27.642Z,12.48
2023-04-27T03:48:29.184Z,12.45
2023-04-27T03:51:34.213Z,12.41
2023-04-27T03:54:36.326Z,12.38
2023-04-27T03:57:37.880Z,12.40
2023-04-27T04:00:39.748Z,12.41
2023-04-27T04:03:41.470Z,12.41
2023-04-27T04:06:43.592Z,12.40
2023-04-27T04:09:46.395Z,12.43
2023-04-27T04:12:47.866Z,12.45
2023-04-27T04:15:49.473Z,12.39
2023-04-27T04:18:51.288Z,12.39
2023-04-27T04:21:54.521Z,12.41
2023-04-27T04:24:56.012Z,12.44
2023-04-27T04:27:57.987Z,12.44
2023-04-27T04:31:01.460Z,12.43
2023-04-27T04:34:03.578Z,12.45
2023-04-27T04:37:05.439Z,12.52
2023-04-27T04:40:09.761Z,12.58
2023-04-27T04:43:12.200Z,12.52
2023-04-27T04:46:13.677Z,12.39
2023-04-27T04:49:15.589Z,12.35
2023-04-27T04:52:17.296Z,12.36
2023-04-27T04:55:19.638Z,12.51
2023-04-27T04:58:21.321Z,12.61
2023-04-27T05:01:23.224Z,12.67
2023-04-27T05:04:24.895Z,12.69
2023-04-27T05:07:26.812Z,12.77
2023-04-27T05:10:28.416Z,12.83
2023-04-27T05:13:30.022Z,12.95
2023-04-27T05:16:31.658Z,13.01
2023-04-27T05:19:33.217Z,13.13
2023-04-27T05:22:34.737Z,13.27
2023-04-27T05:25:41.745Z,13.36
2023-04-27T05:28:43.757Z,13.39
2023-04-27T05:31:45.350Z,13.36
2023-04-27T05:34:49.323Z,13.49
2023-04-27T05:37:51.084Z,13.60
2023-04-27T05:40:58.760Z,13.69
2023-04-27T05:44:00.282Z,13.76
2023-04-27T05:47:01.876Z,13.86
2023-04-27T05:50:03.872Z,13.93
2023-04-27T05:53:05.658Z,13.98
2023-04-27T05:56:07.537Z,14.07
2023-04-27T05:59:09.678Z,14.27
2023-04-27T06:02:11.312Z,14.38
2023-04-27T06:05:14.241Z,14.51
2023-04-27T06:08:15.678Z,14.65
2023-04-27T06:11:17.974Z,14.56
2023-04-27T06:14:19.396Z,14.63
2023-04-27T06:17:21.803Z,14.68
2023-04-27T06:20:23.452Z,14.71
2023-04-27T06:23:25.018Z,14.86
2023-04-27T06:26:26.890Z,15.23
2023-04-27T06:29:28.354Z,15.34
2023-04-27T06:32:30.072Z,15.39
2023-04-27T06:35:32.000Z,15.53
2023-04-27T06:38:33.498Z,15.79
2023-04-27T06:41:34.981Z,19.49
2023-04-27T06:44:36.601Z,19.34
2023-04-27T06:47:38.071Z,18.90
2023-04-27T06:50:39.872Z,18.26
2023-04-27T06:53:41.475Z,21.10
2023-04-27T06:56:43.303Z,19.30
2023-04-27T06:59:45.384Z,19.21
2023-04-27T07:02:46.962Z,19.25
2023-04-27T07:05:48.551Z,19.45
2023-04-27T07:08:50.049Z,19.52
2023-04-27T07:11:51.531Z,19.60
2023-04-27T07:14:53.017Z,19.59
2023-04-27T07:17:54.594Z,19.72
2023-04-27T07:20:58.041Z,19.78
2023-04-27T07:23:59.587Z,19.97
2023-04-27T07:27:02.632Z,20.13
2023-04-27T07:30:06.654Z,19.73
2023-04-27T07:33:08.822Z,19.34
2023-04-27T07:36:10.377Z,19.47
2023-04-27T07:39:12.623Z,19.45
2023-04-27T07:42:15.309Z,19.49
2023-04-27T07:45:19.480Z,19.44
2023-04-27T07:48:21.666Z,19.56
2023-04-27T07:51:23.186Z,19.72
2023-04-27T07:54:24.750Z,19.79
2023-04-27T07:57:26.263Z,19.73
2023-04-27T08:00:27.820Z,20.00
2023-04-27T08:03:29.473Z,19.96
2023-04-27T08:06:31.410Z,20.16
2023-04-27T08:09:33.041Z,20.27
2023-04-27T08:12:34.883Z,20.53
2023-04-27T08:15:37.252Z,20.66
2023-04-27T08:18:38.726Z,20.64
2023-04-27T08:21:40.510Z,20.60
2023-04-27T08:24:42.039Z,20.70
2023-04-27T08:27:43.515Z,20.73
2023-04-27T08:30:45.007Z,20.24
2023-04-27T08:33:46.958Z,20.31
2023-04-27T08:36:48.409Z,20.51
2023-04-27T08:39:49.950Z,20.50
2023-04-27T08:42:57.033Z,20.13
2023-04-27T08:45:58.521Z,19.69
2023-04-27T08:49:00.006Z,19.61
2023-04-27T08:52:02.192Z,19.54
2023-04-27T08:55:04.813Z,19.69
2023-04-27T08:58:06.257Z,19.82
2023-04-27T09:01:08.422Z,19.78
2023-04-27T09:04:11.820Z,19.91
2023-04-27T09:07:18.211Z,19.80
2023-04-27T09:10:19.712Z,19.71
2023-04-27T09:13:21.757Z,20.07
2023-04-27T09:16:25.100Z,20.32
2023-04-27T09:19:28.545Z,20.41
2023-04-27T09:22:30.019Z,20.55
2023-04-27T09:25:32.999Z,20.57
2023-04-27T09:28:38.277Z,20.51
2023-04-27T09:31:39.788Z,20.69
2023-04-27T09:34:41.396Z,20.85
2023-04-27T09:37:43.786Z,20.83
2023-04-27T09:40:45.553Z,20.81
2023-04-27T09:43:47.457Z,20.78
2023-04-27T09:46:49.949Z,20.90
2023-04-27T09:49:52.053Z,20.73
2023-04-27T09:52:53.544Z,20.85
2023-04-27T09:56:22.939Z,21.01
2023-04-27T09:59:44.481Z,21.38
2023-04-27T10:02:58.393Z,21.63
2023-04-27T10:06:20.858Z,21.90
2023-04-27T10:09:23.675Z,22.06
2023-04-27T10:12:39.182Z,22.23
2023-04-27T10:15:40.797Z,21.90
2023-04-27T10:18:52.782Z,22.17
2023-04-27T10:21:56.966Z,22.17
2023-04-27T10:24:58.596Z,22.05
2023-04-27T10:28:02.622Z,22.04
2023-04-27T10:31:11.073Z,22.14
2023-04-27T10:34:19.147Z,21.50
2023-04-27T10:37:25.661Z,21.52
2023-04-27T10:40:34.152Z,21.52
2023-04-27T10:43:35.840Z,21.59
2023-04-27T10:46:49.832Z,21.69
2023-04-27T10:49:57.016Z,21.63
2023-04-27T10:53:04.758Z,21.56
2023-04-27T10:56:07.058Z,21.71
2023-04-27T10:59:08.981Z,22.21
2023-04-27T11:02:12.244Z,22.03
2023-04-27T11:05:22.424Z,21.76
2023-04-27T11:08:24.282Z,21.41
2023-04-27T11:11:26.354Z,21.44
2023-04-27T11:14:28.878Z,21.64
2023-04-27T11:17:30.875Z,22.09
2023-04-27T11:20:32.483Z,22.85
2023-04-27T11:23:38.453Z,23.28
2023-04-27T11:26:39.991Z,22.73
2023-04-27T11:29:42.456Z,22.83
2023-04-27T11:32:44.121Z,22.84
2023-04-27T11:35:46.081Z,22.59
2023-04-27T11:38:47.665Z,22.88
2023-04-27T11:41:49.200Z,23.65
2023-04-27T11:44:54.625Z,24.29
2023-04-27T11:47:59.026Z,23.64
2023-04-27T11:51:01.347Z,23.00
2023-04-27T11:54:07.259Z,23.19
2023-04-27T11:57:10.063Z,23.42
2023-04-27T12:00:14.258Z,23.70
2023-04-27T12:03:17.213Z,23.91
2023-04-27T12:06:32.614Z,24.00
2023-04-27T12:09:35.020Z,23.53
2023-04-27T12:12:36.637Z,23.38
2023-04-27T12:15:39.031Z,23.50
2023-04-27T12:18:40.530Z,23.36
2023-04-27T12:21:42.705Z,23.31
2023-04-27T12:27:47.971Z,23.55
2023-04-27T12:30:49.690Z,23.76
2023-04-27T12:33:51.862Z,24.55
2023-04-27T12:36:53.357Z,24.34
2023-04-27T12:39:55.169Z,24.20
2023-04-27T12:42:57.923Z,24.44
2023-04-27T12:46:00.578Z,24.73
2023-04-27T12:49:02.184Z,24.39
2023-04-27T12:52:03.773Z,24.44
2023-04-27T12:55:06.333Z,24.41
2023-04-27T12:58:07.912Z,24.44
2023-04-27T13:01:14.711Z,24.49
2023-04-27T13:04:20.792Z,24.10
2023-04-27T13:07:23.039Z,24.09
2023-04-27T13:10:24.631Z,24.53
2023-04-27T13:13:26.227Z,25.03
2023-04-27T13:16:27.688Z,24.85
2023-04-27T13:19:29.192Z,24.74
2023-04-27T13:22:30.725Z,24.84
2023-04-27T13:25:32.297Z,25.15
2023-04-27T13:28:33.827Z,25.76
2023-04-27T13:31:35.707Z,25.66
2023-04-27T13:34:37.191Z,25.19
2023-04-27T13:37:40.058Z,25.11
2023-04-27T13:40:41.734Z,25.59
2023-04-27T13:43:43.675Z,25.53
2023-04-27T13:46:45.330Z,25.33
2023-04-27T13:49:46.809Z,25.51
2023-04-27T13:52:48.276Z,25.72
2023-04-27T13:55:49.742Z,26.16
2023-04-27T13:58:51.399Z,26.28
2023-04-27T14:01:53.077Z,25.46
2023-04-27T14:04:55.075Z,24.87
2023-04-27T14:07:56.595Z,24.82
2023-04-27T14:10:58.231Z,24.97
2023-04-27T14:13:59.680Z,25.19
2023-04-27T14:17:01.365Z,25.86
2023-04-27T14:20:04.409Z,25.46
2023-04-27T14:23:06.887Z,25.29
2023-04-27T14:26:09.167Z,25.19
2023-04-27T14:29:11.561Z,25.41
2023-04-27T14:32:13.461Z,25.52
2023-04-27T14:35:15.071Z,25.52
2023-04-27T14:38:16.532Z,25.78
2023-04-27T14:41:18.085Z,25.28
2023-04-27T14:44:19.566Z,25.08
2023-04-27T14:47:21.144Z,25.06
2023-04-27T14:50:22.685Z,25.52
2023-04-27T14:53:25.401Z,26.18
2023-04-27T14:56:27.569Z,26.15
2023-04-27T14:59:29.544Z,26.16
2023-04-27T15:02:33.841Z,27.18
2023-04-27T15:05:35.703Z,28.15
2023-04-27T15:08:37.185Z,27.84
2023-04-27T15:11:38.896Z,27.07
2023-04-27T15:14:40.607Z,26.42
2023-04-27T15:17:42.113Z,26.61
2023-04-27T15:20:44.647Z,27.77
2023-04-27T15:23:46.211Z,28.41
2023-04-27T15:26:48.469Z,28.83
2023-04-27T15:29:49.918Z,29.50
2023-04-27T15:32:51.489Z,31.67
2023-04-27T15:35:53.033Z,31.80
2023-04-27T15:38:54.739Z,32.00
2023-04-27T15:41:58.287Z,31.81
2023-04-27T15:45:00.704Z,31.27
2023-04-27T15:48:02.281Z,31.84
2023-04-27T15:51:07.563Z,31.63
2023-04-27T15:54:11.342Z,31.01
2023-04-27T15:57:12.875Z,31.01
2023-04-27T16:00:16.611Z,31.44
2023-04-27T16:03:18.211Z,31.84
2023-04-27T16:06:19.761Z,32.01
2023-04-27T16:09:23.252Z,31.85
2023-04-27T16:12:24.691Z,32.36
2023-04-27T16:15:26.983Z,33.24
2023-04-27T16:18:28.653Z,33.91
2023-04-27T16:21:30.144Z,35.95
2023-04-27T16:24:31.729Z,38.34
2023-04-27T16:27:39.564Z,40.60
2023-04-27T16:30:41.371Z,41.48
2023-04-27T16:33:42.881Z,42.87
2023-04-27T16:36:44.568Z,42.73
2023-04-27T16:39:46.521Z,43.36
2023-04-27T16:42:48.032Z,42.68
2023-04-27T16:45:49.691Z,43.17
2023-04-27T16:48:51.359Z,43.36
2023-04-27T16:51:54.399Z,43.56
2023-04-27T16:54:55.871Z,43.50
2023-04-27T16:57:57.404Z,41.29
2023-04-27T17:00:58.970Z,38.40
2023-04-27T17:04:03.512Z,35.34
2023-04-27T17:07:06.308Z,34.75
2023-04-27T17:10:09.170Z,33.77
2023-04-27T17:13:12.275Z,32.34
2023-04-27T17:16:16.076Z,29.82
2023-04-27T17:19:17.621Z,28.84
2023-04-27T17:22:19.338Z,26.95
